sensor_id;sensor_type;location;lat;lon;timestamp;pressure;altitude;pressure_sealevel;temperature;humidity
73332;BME280;61560;33.718;73.040;2023-06-14T00:01:59;93616.50;;;29.39;44.00
73332;BME280;61560;33.718;73.040;2023-06-14T00:04:25;93621.38;;;29.46;43.30
73332;BME280;61560;33.718;73.040;2023-06-14T00:06:52;93621.56;;;29.48;42.96
73332;BME280;61560;33.718;73.040;2023-06-14T00:09:20;93637.19;;;29.49;43.72
73332;BME280;61560;33.718;73.040;2023-06-14T00:11:47;93630.03;;;29.48;43.98
73332;BME280;61560;33.718;73.040;2023-06-14T00:14:14;93631.16;;;29.52;44.38
73332;BME280;61560;33.718;73.040;2023-06-14T00:16:41;93636.03;;;29.52;44.62
73332;BME280;61560;33.718;73.040;2023-06-14T00:19:09;93636.03;;;29.52;44.27
73332;BME280;61560;33.718;73.040;2023-06-14T00:21:37;93640.38;;;29.53;44.22
73332;BME280;61560;33.718;73.040;2023-06-14T00:24:05;93638.13;;;29.51;45.02
73332;BME280;61560;33.718;73.040;2023-06-14T00:26:31;93641.69;;;29.52;44.89
73332;BME280;61560;33.718;73.040;2023-06-14T00:28:59;93642.06;;;29.48;45.28
73332;BME280;61560;33.718;73.040;2023-06-14T00:31:26;93637.94;;;29.49;45.14
73332;BME280;61560;33.718;73.040;2023-06-14T00:33:54;93637.94;;;29.49;45.20
73332;BME280;61560;33.718;73.040;2023-06-14T00:36:21;93633.22;;;29.52;45.51
73332;BME280;61560;33.718;73.040;2023-06-14T00:38:48;93633.06;;;29.57;45.63
73332;BME280;61560;33.718;73.040;2023-06-14T00:41:15;93640.56;;;29.62;45.22
73332;BME280;61560;33.718;73.040;2023-06-14T00:43:42;93648.28;;;29.62;44.81
73332;BME280;61560;33.718;73.040;2023-06-14T00:46:09;93646.03;;;29.60;45.16
73332;BME280;61560;33.718;73.040;2023-06-14T00:48:37;93644.50;;;29.52;45.16
73332;BME280;61560;33.718;73.040;2023-06-14T00:51:06;93642.09;;;29.41;45.64
73332;BME280;61560;33.718;73.040;2023-06-14T00:53:34;93650.38;;;29.39;46.41
73332;BME280;61560;33.718;73.040;2023-06-14T00:56:02;93656.94;;;29.34;46.40
73332;BME280;61560;33.718;73.040;2023-06-14T00:58:29;93658.06;;;29.38;45.84
73332;BME280;61560;33.718;73.040;2023-06-14T01:00:57;93648.50;;;29.41;46.28
73332;BME280;61560;33.718;73.040;2023-06-14T01:03:24;93654.13;;;29.56;45.64
73332;BME280;61560;33.718;73.040;2023-06-14T01:05:57;93659.19;;;29.65;45.18
73332;BME280;61560;33.718;73.040;2023-06-14T01:08:50;93649.22;;;29.72;45.58
73332;BME280;61560;33.718;73.040;2023-06-14T01:11:32;93644.53;;;29.82;44.69
73332;BME280;61560;33.718;73.040;2023-06-14T01:14:01;93649.97;;;29.87;44.90
73332;BME280;61560;33.718;73.040;2023-06-14T01:16:30;93642.09;;;29.86;45.25
73332;BME280;61560;33.718;73.040;2023-06-14T01:18:58;93636.44;;;29.86;45.19
73332;BME280;61560;33.718;73.040;2023-06-14T01:21:26;93649.38;;;30.04;45.51
73332;BME280;61560;33.718;73.040;2023-06-14T01:23:54;93648.97;;;30.30;45.27
73332;BME280;61560;33.718;73.040;2023-06-14T01:26:23;93636.22;;;30.61;44.64
73332;BME280;61560;33.718;73.040;2023-06-14T01:28:52;93636.44;;;30.96;43.88
73332;BME280;61560;33.718;73.040;2023-06-14T01:31:25;93634.31;;;31.28;43.21
73332;BME280;61560;33.718;73.040;2023-06-14T01:33:53;93635.38;;;31.65;41.92
73332;BME280;61560;33.718;73.040;2023-06-14T01:36:24;93627.31;;;32.03;40.68
73332;BME280;61560;33.718;73.040;2023-06-14T01:38:58;93640.31;;;32.23;40.66
73332;BME280;61560;33.718;73.040;2023-06-14T01:41:27;93639.16;;;32.44;40.30
73332;BME280;61560;33.718;73.040;2023-06-14T01:43:56;93644.75;;;32.68;39.98
73332;BME280;61560;33.718;73.040;2023-06-14T01:46:23;93647.59;;;32.95;38.99
73332;BME280;61560;33.718;73.040;2023-06-14T01:48:50;93648.19;;;33.11;38.32
73332;BME280;61560;33.718;73.040;2023-06-14T01:51:19;93645.28;;;33.28;38.14
73332;BME280;61560;33.718;73.040;2023-06-14T01:53:48;93644.97;;;33.50;37.91
73332;BME280;61560;33.718;73.040;2023-06-14T01:56:15;93655.03;;;33.70;37.93
73332;BME280;61560;33.718;73.040;2023-06-14T01:58:42;93648.50;;;33.87;37.50
73332;BME280;61560;33.718;73.040;2023-06-14T02:01:10;93661.19;;;34.13;37.21
73332;BME280;61560;33.718;73.040;2023-06-14T02:03:38;93657.91;;;34.45;35.95
73332;BME280;61560;33.718;73.040;2023-06-14T02:06:06;93652.28;;;34.64;35.33
73332;BME280;61560;33.718;73.040;2023-06-14T02:08:33;93652.25;;;34.83;35.61
73332;BME280;61560;33.718;73.040;2023-06-14T02:11:00;93655.69;;;35.01;35.32
73332;BME280;61560;33.718;73.040;2023-06-14T02:13:27;93656.25;;;35.28;35.26
73332;BME280;61560;33.718;73.040;2023-06-14T02:15:54;93660.69;;;35.50;34.27
73332;BME280;61560;33.718;73.040;2023-06-14T02:18:22;93659.47;;;35.63;33.92
73332;BME280;61560;33.718;73.040;2023-06-14T02:20:49;93665.94;;;35.84;32.43
73332;BME280;61560;33.718;73.040;2023-06-14T02:23:17;93665.75;;;36.01;32.09
73332;BME280;61560;33.718;73.040;2023-06-14T02:25:44;93660.66;;;36.21;31.65
73332;BME280;61560;33.718;73.040;2023-06-14T02:28:12;93668.91;;;36.48;31.80
73332;BME280;61560;33.718;73.040;2023-06-14T02:30:39;93660.09;;;36.65;31.45
73332;BME280;61560;33.718;73.040;2023-06-14T02:33:07;93662.59;;;36.70;31.68
73332;BME280;61560;33.718;73.040;2023-06-14T02:35:34;93661.03;;;36.58;31.77
73332;BME280;61560;33.718;73.040;2023-06-14T02:38:02;93659.28;;;36.53;31.69
73332;BME280;61560;33.718;73.040;2023-06-14T02:40:29;93663.09;;;36.46;31.93
73332;BME280;61560;33.718;73.040;2023-06-14T02:42:56;93656.09;;;36.58;31.82
73332;BME280;61560;33.718;73.040;2023-06-14T02:45:24;93655.69;;;37.06;30.74
73332;BME280;61560;33.718;73.040;2023-06-14T02:47:51;93651.34;;;37.38;31.06
73332;BME280;61560;33.718;73.040;2023-06-14T02:50:18;93651.50;;;37.63;30.60
73332;BME280;61560;33.718;73.040;2023-06-14T02:52:45;93642.94;;;37.74;31.47
73332;BME280;61560;33.718;73.040;2023-06-14T02:55:12;93652.91;;;37.97;30.16
73332;BME280;61560;33.718;73.040;2023-06-14T02:57:39;93653.41;;;38.05;30.51
73332;BME280;61560;33.718;73.040;2023-06-14T03:00:09;93646.81;;;38.02;29.84
73332;BME280;61560;33.718;73.040;2023-06-14T03:02:37;93645.03;;;38.20;30.05
73332;BME280;61560;33.718;73.040;2023-06-14T03:05:04;93645.94;;;38.23;30.32
73332;BME280;61560;33.718;73.040;2023-06-14T03:07:34;93650.28;;;38.35;30.34
73332;BME280;61560;33.718;73.040;2023-06-14T03:10:03;93646.31;;;38.40;29.82
73332;BME280;61560;33.718;73.040;2023-06-14T03:12:30;93645.66;;;38.42;29.50
73332;BME280;61560;33.718;73.040;2023-06-14T03:14:58;93640.50;;;38.64;28.59
73332;BME280;61560;33.718;73.040;2023-06-14T03:17:30;93642.84;;;38.79;28.73
73332;BME280;61560;33.718;73.040;2023-06-14T03:20:01;93643.72;;;39.06;27.99
73332;BME280;61560;33.718;73.040;2023-06-14T03:22:30;93640.97;;;39.20;27.64
73332;BME280;61560;33.718;73.040;2023-06-14T03:24:59;93631.41;;;39.29;27.96
73332;BME280;61560;33.718;73.040;2023-06-14T03:27:30;93632.78;;;39.53;27.44
73332;BME280;61560;33.718;73.040;2023-06-14T03:29:57;93627.75;;;39.65;27.31
73332;BME280;61560;33.718;73.040;2023-06-14T03:32:25;93628.56;;;39.54;27.29
73332;BME280;61560;33.718;73.040;2023-06-14T03:34:52;93622.44;;;39.35;27.86
73332;BME280;61560;33.718;73.040;2023-06-14T03:37:23;93622.88;;;39.95;27.42
73332;BME280;61560;33.718;73.040;2023-06-14T03:39:50;93625.75;;;40.36;26.74
73332;BME280;61560;33.718;73.040;2023-06-14T03:42:23;93623.28;;;40.71;26.12
73332;BME280;61560;33.718;73.040;2023-06-14T03:44:50;93629.44;;;40.93;25.68
73332;BME280;61560;33.718;73.040;2023-06-14T03:47:20;93626.03;;;41.25;24.70
73332;BME280;61560;33.718;73.040;2023-06-14T03:49:47;93623.91;;;41.71;23.61
73332;BME280;61560;33.718;73.040;2023-06-14T03:52:14;93624.66;;;41.87;23.33
73332;BME280;61560;33.718;73.040;2023-06-14T03:54:47;93627.50;;;42.49;22.93
73332;BME280;61560;33.718;73.040;2023-06-14T03:57:16;93633.63;;;43.08;22.50
73332;BME280;61560;33.718;73.040;2023-06-14T04:00:05;93632.41;;;43.48;21.42
73332;BME280;61560;33.718;73.040;2023-06-14T04:02:40;93631.03;;;43.49;21.09
73332;BME280;61560;33.718;73.040;2023-06-14T04:05:09;93641.47;;;43.58;21.66
73332;BME280;61560;33.718;73.040;2023-06-14T04:07:39;93648.72;;;43.77;21.57
73332;BME280;61560;33.718;73.040;2023-06-14T04:10:13;93652.00;;;44.05;21.72
73332;BME280;61560;33.718;73.040;2023-06-14T04:12:44;93661.09;;;44.36;21.20
73332;BME280;61560;33.718;73.040;2023-06-14T04:15:11;93660.53;;;44.79;21.08
73332;BME280;61560;33.718;73.040;2023-06-14T04:17:38;93662.78;;;45.22;21.21
73332;BME280;61560;33.718;73.040;2023-06-14T04:20:08;93659.53;;;45.55;20.95
73332;BME280;61560;33.718;73.040;2023-06-14T04:22:36;93664.84;;;45.86;20.22
73332;BME280;61560;33.718;73.040;2023-06-14T04:25:05;93671.34;;;46.08;20.11
73332;BME280;61560;33.718;73.040;2023-06-14T04:27:33;93676.44;;;46.32;19.35
73332;BME280;61560;33.718;73.040;2023-06-14T04:30:03;93679.06;;;46.47;19.69
73332;BME280;61560;33.718;73.040;2023-06-14T04:32:38;93682.25;;;46.57;19.58
73332;BME280;61560;33.718;73.040;2023-06-14T04:35:08;93680.19;;;46.62;19.04
73332;BME280;61560;33.718;73.040;2023-06-14T04:37:37;93675.09;;;46.60;19.30
73332;BME280;61560;33.718;73.040;2023-06-14T04:40:09;93677.19;;;46.58;19.26
73332;BME280;61560;33.718;73.040;2023-06-14T04:42:38;93678.63;;;46.57;19.30
73332;BME280;61560;33.718;73.040;2023-06-14T04:45:09;93687.03;;;46.47;19.08
73332;BME280;61560;33.718;73.040;2023-06-14T04:47:37;93681.69;;;46.37;19.12
73332;BME280;61560;33.718;73.040;2023-06-14T04:50:06;93678.38;;;46.25;19.95
73332;BME280;61560;33.718;73.040;2023-06-14T04:52:34;93684.66;;;46.17;19.62
73332;BME280;61560;33.718;73.040;2023-06-14T04:55:04;93688.72;;;46.08;19.60
73332;BME280;61560;33.718;73.040;2023-06-14T04:57:32;93689.78;;;45.95;20.80
73332;BME280;61560;33.718;73.040;2023-06-14T05:00:00;93693.56;;;46.00;20.19
73332;BME280;61560;33.718;73.040;2023-06-14T05:02:28;93680.28;;;45.93;20.11
73332;BME280;61560;33.718;73.040;2023-06-14T05:04:57;93690.47;;;45.94;20.65
73332;BME280;61560;33.718;73.040;2023-06-14T05:07:28;93690.19;;;45.86;20.49
73332;BME280;61560;33.718;73.040;2023-06-14T05:09:55;93691.78;;;45.67;21.48
73332;BME280;61560;33.718;73.040;2023-06-14T05:12:22;93703.81;;;45.60;22.23
73332;BME280;61560;33.718;73.040;2023-06-14T05:14:49;93705.59;;;45.49;21.62
73332;BME280;61560;33.718;73.040;2023-06-14T05:17:19;93710.03;;;45.30;21.90
73332;BME280;61560;33.718;73.040;2023-06-14T05:19:47;93707.47;;;45.19;22.34
73332;BME280;61560;33.718;73.040;2023-06-14T05:22:14;93701.47;;;45.13;22.39
73332;BME280;61560;33.718;73.040;2023-06-14T05:24:40;93700.78;;;45.14;22.56
73332;BME280;61560;33.718;73.040;2023-06-14T05:27:08;93705.94;;;44.96;21.59
73332;BME280;61560;33.718;73.040;2023-06-14T05:29:35;93707.94;;;44.92;21.27
73332;BME280;61560;33.718;73.040;2023-06-14T05:32:03;93707.16;;;44.89;21.61
73332;BME280;61560;33.718;73.040;2023-06-14T05:34:31;93709.66;;;44.79;21.37
73332;BME280;61560;33.718;73.040;2023-06-14T05:36:58;93707.06;;;44.48;20.50
73332;BME280;61560;33.718;73.040;2023-06-14T05:39:25;93701.72;;;44.40;21.84
73332;BME280;61560;33.718;73.040;2023-06-14T05:41:52;93712.38;;;44.36;22.27
73332;BME280;61560;33.718;73.040;2023-06-14T05:44:19;93706.13;;;44.24;20.98
73332;BME280;61560;33.718;73.040;2023-06-14T05:46:46;93708.13;;;44.19;21.82
73332;BME280;61560;33.718;73.040;2023-06-14T05:49:13;93703.06;;;44.20;21.94
73332;BME280;61560;33.718;73.040;2023-06-14T05:51:40;93708.44;;;44.27;22.31
73332;BME280;61560;33.718;73.040;2023-06-14T05:54:07;93714.00;;;44.41;22.88
73332;BME280;61560;33.718;73.040;2023-06-14T05:56:34;93702.81;;;44.31;21.02
73332;BME280;61560;33.718;73.040;2023-06-14T05:59:01;93698.50;;;44.13;20.70
73332;BME280;61560;33.718;73.040;2023-06-14T06:01:28;93705.34;;;44.04;22.18
73332;BME280;61560;33.718;73.040;2023-06-14T06:03:56;93708.38;;;44.08;22.67
73332;BME280;61560;33.718;73.040;2023-06-14T06:06:23;93697.50;;;44.06;22.87
73332;BME280;61560;33.718;73.040;2023-06-14T06:08:51;93697.50;;;44.06;22.53
73332;BME280;61560;33.718;73.040;2023-06-14T06:11:18;93700.31;;;44.04;22.44
73332;BME280;61560;33.718;73.040;2023-06-14T06:13:46;93705.91;;;44.00;22.57
73332;BME280;61560;33.718;73.040;2023-06-14T06:16:13;93704.84;;;43.91;21.10
73332;BME280;61560;33.718;73.040;2023-06-14T06:18:40;93698.75;;;43.83;20.30
73332;BME280;61560;33.718;73.040;2023-06-14T06:21:07;93686.91;;;43.75;21.01
73332;BME280;61560;33.718;73.040;2023-06-14T06:23:34;93704.38;;;43.62;19.96
73332;BME280;61560;33.718;73.040;2023-06-14T06:26:02;93684.16;;;43.44;20.69
73332;BME280;61560;33.718;73.040;2023-06-14T06:28:30;93686.13;;;43.40;19.79
73332;BME280;61560;33.718;73.040;2023-06-14T06:30:57;93684.53;;;43.19;20.63
73332;BME280;61560;33.718;73.040;2023-06-14T06:33:24;93679.13;;;43.27;20.81
73332;BME280;61560;33.718;73.040;2023-06-14T06:35:51;93685.19;;;43.17;20.52
73332;BME280;61560;33.718;73.040;2023-06-14T06:38:18;93678.59;;;43.15;20.29
73332;BME280;61560;33.718;73.040;2023-06-14T06:40:45;93672.81;;;42.97;20.14
73332;BME280;61560;33.718;73.040;2023-06-14T06:43:12;93675.50;;;42.60;20.62
73332;BME280;61560;33.718;73.040;2023-06-14T06:45:47;93671.81;;;42.42;21.25
73332;BME280;61560;33.718;73.040;2023-06-14T06:48:14;93676.47;;;42.18;20.97
73332;BME280;61560;33.718;73.040;2023-06-14T06:50:42;93679.44;;;42.04;21.99
73332;BME280;61560;33.718;73.040;2023-06-14T06:53:09;93675.06;;;42.03;22.64
73332;BME280;61560;33.718;73.040;2023-06-14T06:55:36;93673.41;;;42.29;23.17
73332;BME280;61560;33.718;73.040;2023-06-14T06:58:04;93669.13;;;42.46;23.92
73332;BME280;61560;33.718;73.040;2023-06-14T07:00:33;93665.03;;;42.51;23.14
73332;BME280;61560;33.718;73.040;2023-06-14T07:03:01;93664.84;;;42.47;23.17
73332;BME280;61560;33.718;73.040;2023-06-14T07:05:30;93671.91;;;42.44;23.45
73332;BME280;61560;33.718;73.040;2023-06-14T07:07:57;93667.25;;;42.37;23.80
73332;BME280;61560;33.718;73.040;2023-06-14T07:10:24;93663.47;;;42.32;23.67
73332;BME280;61560;33.718;73.040;2023-06-14T07:12:51;93664.59;;;42.10;21.84
73332;BME280;61560;33.718;73.040;2023-06-14T07:15:18;93657.69;;;41.86;22.43
73332;BME280;61560;33.718;73.040;2023-06-14T07:17:45;93660.47;;;41.68;23.38
73332;BME280;61560;33.718;73.040;2023-06-14T07:20:12;93654.53;;;41.64;23.13
73332;BME280;61560;33.718;73.040;2023-06-14T07:22:41;93650.84;;;41.48;22.85
73332;BME280;61560;33.718;73.040;2023-06-14T07:25:12;93651.09;;;41.38;24.24
73332;BME280;61560;33.718;73.040;2023-06-14T07:27:42;93649.97;;;41.30;23.13
73332;BME280;61560;33.718;73.040;2023-06-14T07:30:10;93638.19;;;41.24;21.84
73332;BME280;61560;33.718;73.040;2023-06-14T07:32:38;93649.69;;;41.10;22.62
73332;BME280;61560;33.718;73.040;2023-06-14T07:35:05;93646.91;;;41.12;24.63
73332;BME280;61560;33.718;73.040;2023-06-14T07:37:34;93648.53;;;41.15;23.56
73332;BME280;61560;33.718;73.040;2023-06-14T07:40:01;93630.72;;;41.19;24.03
73332;BME280;61560;33.718;73.040;2023-06-14T07:42:34;93636.69;;;41.23;24.05
73332;BME280;61560;33.718;73.040;2023-06-14T07:45:03;93631.47;;;41.19;22.89
73332;BME280;61560;33.718;73.040;2023-06-14T07:47:31;93634.56;;;41.10;23.12
73332;BME280;61560;33.718;73.040;2023-06-14T07:49:58;93634.44;;;40.92;23.58
73332;BME280;61560;33.718;73.040;2023-06-14T07:52:25;93634.69;;;40.83;24.25
73332;BME280;61560;33.718;73.040;2023-06-14T07:54:52;93634.59;;;40.80;24.34
73332;BME280;61560;33.718;73.040;2023-06-14T07:57:19;93622.53;;;40.84;24.39
73332;BME280;61560;33.718;73.040;2023-06-14T07:59:46;93624.03;;;40.85;22.73
73332;BME280;61560;33.718;73.040;2023-06-14T08:02:14;93619.16;;;40.74;23.67
73332;BME280;61560;33.718;73.040;2023-06-14T08:04:44;93619.34;;;40.64;23.70
73332;BME280;61560;33.718;73.040;2023-06-14T08:07:13;93607.66;;;40.60;24.90
73332;BME280;61560;33.718;73.040;2023-06-14T08:09:39;93612.06;;;40.48;23.03
73332;BME280;61560;33.718;73.040;2023-06-14T08:12:07;93604.94;;;40.35;24.24
73332;BME280;61560;33.718;73.040;2023-06-14T08:14:36;93599.94;;;40.36;23.85
73332;BME280;61560;33.718;73.040;2023-06-14T08:17:04;93602.06;;;40.35;25.61
73332;BME280;61560;33.718;73.040;2023-06-14T08:19:31;93588.44;;;40.36;25.88
73332;BME280;61560;33.718;73.040;2023-06-14T08:22:01;93588.53;;;40.38;25.48
73332;BME280;61560;33.718;73.040;2023-06-14T08:24:28;93587.50;;;40.31;23.68
73332;BME280;61560;33.718;73.040;2023-06-14T08:26:55;93582.19;;;40.26;24.55
73332;BME280;61560;33.718;73.040;2023-06-14T08:29:29;93585.38;;;40.32;25.62
73332;BME280;61560;33.718;73.040;2023-06-14T08:31:57;93579.22;;;40.37;25.26
73332;BME280;61560;33.718;73.040;2023-06-14T08:34:31;93580.50;;;40.21;23.53
73332;BME280;61560;33.718;73.040;2023-06-14T08:36:58;93587.63;;;40.06;24.02
73332;BME280;61560;33.718;73.040;2023-06-14T08:39:25;93576.50;;;39.98;24.37
73332;BME280;61560;33.718;73.040;2023-06-14T08:41:54;93569.13;;;39.95;25.23
73332;BME280;61560;33.718;73.040;2023-06-14T08:44:23;93564.78;;;39.94;24.73
73332;BME280;61560;33.718;73.040;2023-06-14T08:46:50;93558.50;;;39.84;24.02
73332;BME280;61560;33.718;73.040;2023-06-14T08:49:20;93561.47;;;39.73;25.29
73332;BME280;61560;33.718;73.040;2023-06-14T08:51:48;93557.63;;;39.68;23.81
73332;BME280;61560;33.718;73.040;2023-06-14T08:54:18;93557.44;;;39.64;26.03
73332;BME280;61560;33.718;73.040;2023-06-14T08:56:47;93551.28;;;39.70;25.20
73332;BME280;61560;33.718;73.040;2023-06-14T08:59:15;93545.00;;;39.60;23.31
73332;BME280;61560;33.718;73.040;2023-06-14T09:01:45;93544.75;;;39.42;23.62
73332;BME280;61560;33.718;73.040;2023-06-14T09:04:12;93538.38;;;39.44;23.81
73332;BME280;61560;33.718;73.040;2023-06-14T09:06:43;93533.81;;;39.52;23.62
73332;BME280;61560;33.718;73.040;2023-06-14T09:09:11;93526.75;;;39.67;23.22
73332;BME280;61560;33.718;73.040;2023-06-14T09:11:42;93528.56;;;39.74;23.12
73332;BME280;61560;33.718;73.040;2023-06-14T09:14:13;93522.38;;;39.79;22.70
73332;BME280;61560;33.718;73.040;2023-06-14T09:16:40;93522.28;;;39.77;22.50
73332;BME280;61560;33.718;73.040;2023-06-14T09:19:07;93522.28;;;39.64;22.64
73332;BME280;61560;33.718;73.040;2023-06-14T09:21:35;93520.56;;;39.45;22.57
73332;BME280;61560;33.718;73.040;2023-06-14T09:24:03;93527.97;;;39.37;22.29
73332;BME280;61560;33.718;73.040;2023-06-14T09:26:31;93518.72;;;39.38;22.62
73332;BME280;61560;33.718;73.040;2023-06-14T09:28:58;93509.81;;;39.32;22.13
73332;BME280;61560;33.718;73.040;2023-06-14T09:31:25;93514.78;;;39.32;22.31
73332;BME280;61560;33.718;73.040;2023-06-14T09:33:53;93510.03;;;39.36;22.81
73332;BME280;61560;33.718;73.040;2023-06-14T09:36:25;93502.59;;;39.45;22.67
73332;BME280;61560;33.718;73.040;2023-06-14T09:39:02;93502.19;;;39.50;22.93
73332;BME280;61560;33.718;73.040;2023-06-14T09:41:38;93502.63;;;39.58;22.35
73332;BME280;61560;33.718;73.040;2023-06-14T09:44:07;93499.13;;;39.73;21.98
73332;BME280;61560;33.718;73.040;2023-06-14T09:46:35;93496.38;;;39.75;21.88
73332;BME280;61560;33.718;73.040;2023-06-14T09:49:03;93484.38;;;39.65;21.88
73332;BME280;61560;33.718;73.040;2023-06-14T09:51:31;93488.50;;;39.62;22.34
73332;BME280;61560;33.718;73.040;2023-06-14T09:54:02;93494.22;;;39.49;22.27
73332;BME280;61560;33.718;73.040;2023-06-14T09:56:44;93492.94;;;39.38;22.56
73332;BME280;61560;33.718;73.040;2023-06-14T09:59:13;93491.22;;;39.19;22.42
73332;BME280;61560;33.718;73.040;2023-06-14T10:01:43;93488.34;;;39.19;23.54
73332;BME280;61560;33.718;73.040;2023-06-14T10:04:12;93489.84;;;39.20;22.63
73332;BME280;61560;33.718;73.040;2023-06-14T10:06:43;93484.84;;;39.21;22.15
73332;BME280;61560;33.718;73.040;2023-06-14T10:09:12;93494.63;;;39.16;21.55
73332;BME280;61560;33.718;73.040;2023-06-14T10:11:40;93495.22;;;39.14;22.28
73332;BME280;61560;33.718;73.040;2023-06-14T10:14:12;93477.88;;;38.99;22.53
73332;BME280;61560;33.718;73.040;2023-06-14T10:19:29;93474.56;;;39.16;22.27
73332;BME280;61560;33.718;73.040;2023-06-14T10:24:41;93460.44;;;39.20;22.09
73332;BME280;61560;33.718;73.040;2023-06-14T10:27:09;93461.09;;;39.18;22.69
73332;BME280;61560;33.718;73.040;2023-06-14T10:30:03;93461.63;;;39.28;22.95
73332;BME280;61560;33.718;73.040;2023-06-14T10:32:35;93470.44;;;39.33;23.92
73332;BME280;61560;33.718;73.040;2023-06-14T10:35:05;93464.28;;;39.24;23.01
73332;BME280;61560;33.718;73.040;2023-06-14T10:37:34;93470.19;;;39.15;22.46
73332;BME280;61560;33.718;73.040;2023-06-14T10:40:02;93458.91;;;38.92;22.42
73332;BME280;61560;33.718;73.040;2023-06-14T10:42:34;93467.25;;;38.88;22.57
73332;BME280;61560;33.718;73.040;2023-06-14T10:45:01;93465.47;;;38.94;22.61
73332;BME280;61560;33.718;73.040;2023-06-14T10:47:38;93460.16;;;39.02;22.65
73332;BME280;61560;33.718;73.040;2023-06-14T10:50:10;93477.03;;;38.96;22.24
73332;BME280;61560;33.718;73.040;2023-06-14T10:52:42;93470.41;;;38.80;22.83
73332;BME280;61560;33.718;73.040;2023-06-14T10:55:19;93474.22;;;38.71;22.60
73332;BME280;61560;33.718;73.040;2023-06-14T10:57:54;93475.81;;;38.74;23.01
73332;BME280;61560;33.718;73.040;2023-06-14T11:00:27;93469.06;;;38.81;22.69
73332;BME280;61560;33.718;73.040;2023-06-14T11:05:54;93474.03;;;38.81;22.33
73332;BME280;61560;33.718;73.040;2023-06-14T11:11:13;93472.81;;;38.47;23.13
73332;BME280;61560;33.718;73.040;2023-06-14T11:13:45;93477.63;;;38.31;23.07
73332;BME280;61560;33.718;73.040;2023-06-14T11:16:17;93471.03;;;38.28;23.27
73332;BME280;61560;33.718;73.040;2023-06-14T11:19:05;93474.63;;;38.40;23.54
73332;BME280;61560;33.718;73.040;2023-06-14T11:21:33;93474.03;;;38.56;23.24
73332;BME280;61560;33.718;73.040;2023-06-14T11:24:03;93469.59;;;38.66;23.44
73332;BME280;61560;33.718;73.040;2023-06-14T11:26:31;93452.69;;;38.70;22.96
73332;BME280;61560;33.718;73.040;2023-06-14T11:29:01;93460.13;;;38.75;23.15
73332;BME280;61560;33.718;73.040;2023-06-14T11:31:29;93460.13;;;38.75;23.07
73332;BME280;61560;33.718;73.040;2023-06-14T11:33:58;93456.09;;;38.80;22.60
73332;BME280;61560;33.718;73.040;2023-06-14T11:36:30;93461.59;;;38.76;22.66
73332;BME280;61560;33.718;73.040;2023-06-14T11:39:01;93457.28;;;38.75;22.44
73332;BME280;61560;33.718;73.040;2023-06-14T11:41:37;93446.84;;;38.68;22.80
73332;BME280;61560;33.718;73.040;2023-06-14T11:44:05;93446.47;;;38.62;23.44
73332;BME280;61560;33.718;73.040;2023-06-14T11:46:32;93454.22;;;38.60;22.96
73332;BME280;61560;33.718;73.040;2023-06-14T11:48:59;93452.41;;;38.53;23.41
73332;BME280;61560;33.718;73.040;2023-06-14T11:51:30;93458.00;;;38.50;23.62
73332;BME280;61560;33.718;73.040;2023-06-14T11:53:58;93446.69;;;38.53;23.28
73332;BME280;61560;33.718;73.040;2023-06-14T11:56:26;93452.63;;;38.57;23.03
73332;BME280;61560;33.718;73.040;2023-06-14T11:58:53;93441.78;;;38.55;22.79
73332;BME280;61560;33.718;73.040;2023-06-14T12:01:23;93442.31;;;38.51;22.87
73332;BME280;61560;33.718;73.040;2023-06-14T12:03:53;93445.13;;;38.38;23.84
73332;BME280;61560;33.718;73.040;2023-06-14T12:06:29;93446.16;;;38.31;24.13
73332;BME280;61560;33.718;73.040;2023-06-14T12:08:59;93441.06;;;38.29;23.68
73332;BME280;61560;33.718;73.040;2023-06-14T12:11:35;93441.34;;;38.22;23.70
73332;BME280;61560;33.718;73.040;2023-06-14T12:14:07;93435.25;;;38.16;24.26
73332;BME280;61560;33.718;73.040;2023-06-14T12:16:37;93439.38;;;38.13;23.55
73332;BME280;61560;33.718;73.040;2023-06-14T12:19:16;93438.72;;;38.14;24.23
73332;BME280;61560;33.718;73.040;2023-06-14T12:21:47;93429.44;;;38.14;24.31
73332;BME280;61560;33.718;73.040;2023-06-14T12:24:15;93419.75;;;38.07;23.66
73332;BME280;61560;33.718;73.040;2023-06-14T12:26:42;93427.28;;;38.14;24.67
73332;BME280;61560;33.718;73.040;2023-06-14T12:29:09;93424.94;;;38.11;24.14
73332;BME280;61560;33.718;73.040;2023-06-14T12:31:36;93422.63;;;38.07;24.29
73332;BME280;61560;33.718;73.040;2023-06-14T12:34:05;93423.75;;;38.02;24.68
73332;BME280;61560;33.718;73.040;2023-06-14T12:36:32;93427.66;;;37.95;24.24
73332;BME280;61560;33.718;73.040;2023-06-14T12:39:00;93428.78;;;37.90;25.01
73332;BME280;61560;33.718;73.040;2023-06-14T12:41:27;93426.44;;;37.87;25.60
73332;BME280;61560;33.718;73.040;2023-06-14T12:43:54;93426.44;;;37.87;25.70
73332;BME280;61560;33.718;73.040;2023-06-14T12:46:21;93425.22;;;37.78;26.26
73332;BME280;61560;33.718;73.040;2023-06-14T12:48:48;93423.09;;;37.79;26.98
73332;BME280;61560;33.718;73.040;2023-06-14T12:51:16;93429.91;;;37.73;26.95
73332;BME280;61560;33.718;73.040;2023-06-14T12:53:45;93429.84;;;37.60;27.27
73332;BME280;61560;33.718;73.040;2023-06-14T12:56:12;93421.25;;;37.48;27.55
73332;BME280;61560;33.718;73.040;2023-06-14T12:58:39;93424.91;;;37.37;28.35
73332;BME280;61560;33.718;73.040;2023-06-14T13:01:06;93418.19;;;37.33;28.80
73332;BME280;61560;33.718;73.040;2023-06-14T13:03:33;93422.28;;;37.18;29.29
73332;BME280;61560;33.718;73.040;2023-06-14T13:06:01;93432.09;;;37.15;29.21
73332;BME280;61560;33.718;73.040;2023-06-14T13:08:29;93441.78;;;37.10;29.59
73332;BME280;61560;33.718;73.040;2023-06-14T13:10:56;93428.50;;;37.03;29.62